sensor_id;sensor_type;location;lat;lon;timestamp;temperature;humidity
66610;DHT22;53468;48.276;14.416;2023-12-28T00:03:59;2.10;92.50
66610;DHT22;53468;48.276;14.416;2023-12-28T00:09:04;2.00;92.90
66610;DHT22;53468;48.276;14.416;2023-12-28T00:14:08;2.00;92.60
66610;DHT22;53468;48.276;14.416;2023-12-28T00:19:15;1.90;92.40
66610;DHT22;53468;48.276;14.416;2023-12-28T00:24:21;1.90;93.00
66610;DHT22;53468;48.276;14.416;2023-12-28T00:29:26;1.80;92.80
66610;DHT22;53468;48.276;14.416;2023-12-28T00:34:33;1.80;92.90
66610;DHT22;53468;48.276;14.416;2023-12-28T00:39:40;1.80;92.90
66610;DHT22;53468;48.276;14.416;2023-12-28T00:44:44;1.70;93.10
66610;DHT22;53468;48.276;14.416;2023-12-28T00:49:49;1.80;92.90
66610;DHT22;53468;48.276;14.416;2023-12-28T00:54:53;1.80;93.20
66610;DHT22;53468;48.276;14.416;2023-12-28T00:59:58;1.70;92.50
66610;DHT22;53468;48.276;14.416;2023-12-28T01:05:05;1.70;92.70
66610;DHT22;53468;48.276;14.416;2023-12-28T01:10:09;1.70;93.30
66610;DHT22;53468;48.276;14.416;2023-12-28T01:15:12;1.70;92.60
66610;DHT22;53468;48.276;14.416;2023-12-28T01:20:36;1.60;93.20
66610;DHT22;53468;48.276;14.416;2023-12-28T01:25:41;1.50;92.60
66610;DHT22;53468;48.276;14.416;2023-12-28T01:30:44;1.50;92.70
66610;DHT22;53468;48.276;14.416;2023-12-28T01:35:51;1.40;92.80
66610;DHT22;53468;48.276;14.416;2023-12-28T01:40:54;1.40;92.60
66610;DHT22;53468;48.276;14.416;2023-12-28T01:45:58;1.30;93.00
66610;DHT22;53468;48.276;14.416;2023-12-28T01:51:04;1.40;93.90
66610;DHT22;53468;48.276;14.416;2023-12-28T01:56:08;1.40;93.60
66610;DHT22;53468;48.276;14.416;2023-12-28T02:01:13;1.40;93.80
66610;DHT22;53468;48.276;14.416;2023-12-28T02:06:23;1.30;93.60
66610;DHT22;53468;48.276;14.416;2023-12-28T02:11:29;1.40;94.00
66610;DHT22;53468;48.276;14.416;2023-12-28T02:16:36;1.40;93.80
66610;DHT22;53468;48.276;14.416;2023-12-28T02:21:43;1.50;94.80
66610;DHT22;53468;48.276;14.416;2023-12-28T02:26:49;1.60;95.40
66610;DHT22;53468;48.276;14.416;2023-12-28T02:32:00;1.70;95.30
66610;DHT22;53468;48.276;14.416;2023-12-28T02:37:08;1.90;95.40
66610;DHT22;53468;48.276;14.416;2023-12-28T02:42:14;2.00;95.60
66610;DHT22;53468;48.276;14.416;2023-12-28T02:47:19;2.00;95.60
66610;DHT22;53468;48.276;14.416;2023-12-28T02:52:23;2.10;95.60
66610;DHT22;53468;48.276;14.416;2023-12-28T02:57:30;2.10;95.40
66610;DHT22;53468;48.276;14.416;2023-12-28T03:02:35;2.10;94.90
66610;DHT22;53468;48.276;14.416;2023-12-28T03:07:39;2.00;94.50
66610;DHT22;53468;48.276;14.416;2023-12-28T03:12:45;2.00;94.20
66610;DHT22;53468;48.276;14.416;2023-12-28T03:17:49;1.90;94.40
66610;DHT22;53468;48.276;14.416;2023-12-28T03:22:53;2.00;94.50
66610;DHT22;53468;48.276;14.416;2023-12-28T03:27:59;1.90;93.80
66610;DHT22;53468;48.276;14.416;2023-12-28T03:33:04;1.70;93.50
66610;DHT22;53468;48.276;14.416;2023-12-28T03:38:08;1.50;93.10
66610;DHT22;53468;48.276;14.416;2023-12-28T03:43:13;1.30;93.00
66610;DHT22;53468;48.276;14.416;2023-12-28T03:48:17;1.20;92.70
66610;DHT22;53468;48.276;14.416;2023-12-28T03:53:21;1.00;92.70
66610;DHT22;53468;48.276;14.416;2023-12-28T03:58:28;0.90;92.60
66610;DHT22;53468;48.276;14.416;2023-12-28T04:03:32;0.90;92.60
66610;DHT22;53468;48.276;14.416;2023-12-28T04:08:36;0.70;92.30
66610;DHT22;53468;48.276;14.416;2023-12-28T04:13:42;0.60;93.20
66610;DHT22;53468;48.276;14.416;2023-12-28T04:18:47;0.60;93.00
66610;DHT22;53468;48.276;14.416;2023-12-28T04:23:51;0.50;93.00
66610;DHT22;53468;48.276;14.416;2023-12-28T04:28:57;0.40;93.00
66610;DHT22;53468;48.276;14.416;2023-12-28T04:34:02;0.40;92.80
66610;DHT22;53468;48.276;14.416;2023-12-28T04:39:07;0.40;93.10
66610;DHT22;53468;48.276;14.416;2023-12-28T04:44:14;0.40;93.80
66610;DHT22;53468;48.276;14.416;2023-12-28T04:49:18;0.30;94.00
66610;DHT22;53468;48.276;14.416;2023-12-28T04:54:23;0.30;93.00
66610;DHT22;53468;48.276;14.416;2023-12-28T04:59:29;0.30;93.70
66610;DHT22;53468;48.276;14.416;2023-12-28T05:04:36;0.30;93.00
66610;DHT22;53468;48.276;14.416;2023-12-28T05:09:41;0.30;93.10
66610;DHT22;53468;48.276;14.416;2023-12-28T05:14:48;0.20;93.40
66610;DHT22;53468;48.276;14.416;2023-12-28T05:19:53;0.00;93.40
66610;DHT22;53468;48.276;14.416;2023-12-28T05:24:58;0.10;93.00
66610;DHT22;53468;48.276;14.416;2023-12-28T05:30:06;0.10;92.60
66610;DHT22;53468;48.276;14.416;2023-12-28T05:35:11;0.10;93.20
66610;DHT22;53468;48.276;14.416;2023-12-28T05:40:17;0.10;92.80
66610;DHT22;53468;48.276;14.416;2023-12-28T05:45:23;0.00;92.70
66610;DHT22;53468;48.276;14.416;2023-12-28T05:50:29;-0.10;92.00
66610;DHT22;53468;48.276;14.416;2023-12-28T05:55:34;-0.10;92.30
66610;DHT22;53468;48.276;14.416;2023-12-28T06:00:41;-0.20;92.70
66610;DHT22;53468;48.276;14.416;2023-12-28T06:05:45;-0.30;92.80
66610;DHT22;53468;48.276;14.416;2023-12-28T06:10:51;-0.30;92.70
66610;DHT22;53468;48.276;14.416;2023-12-28T10:43:27;3.10;94.20
66610;DHT22;53468;48.276;14.416;2023-12-28T10:48:45;3.20;94.00
66610;DHT22;53468;48.276;14.416;2023-12-28T10:53:52;3.40;94.00
66610;DHT22;53468;48.276;14.416;2023-12-28T10:59:17;3.50;94.30
66610;DHT22;53468;48.276;14.416;2023-12-28T11:04:40;3.70;93.70
66610;DHT22;53468;48.276;14.416;2023-12-28T11:10:14;3.80;93.20
66610;DHT22;53468;48.276;14.416;2023-12-28T11:15:27;3.80;93.40
66610;DHT22;53468;48.276;14.416;2023-12-28T11:20:36;3.90;93.50
66610;DHT22;53468;48.276;14.416;2023-12-28T11:25:39;3.90;92.70
66610;DHT22;53468;48.276;14.416;2023-12-28T11:30:43;3.80;93.40
66610;DHT22;53468;48.276;14.416;2023-12-28T11:35:48;4.00;93.40
66610;DHT22;53468;48.276;14.416;2023-12-28T11:41:05;4.10;93.10
66610;DHT22;53468;48.276;14.416;2023-12-28T11:46:13;4.10;93.10
66610;DHT22;53468;48.276;14.416;2023-12-28T11:51:16;4.20;93.30
66610;DHT22;53468;48.276;14.416;2023-12-28T11:56:20;4.40;92.70
66610;DHT22;53468;48.276;14.416;2023-12-28T12:01:25;4.40;92.90
66610;DHT22;53468;48.276;14.416;2023-12-28T12:06:28;4.50;93.00
66610;DHT22;53468;48.276;14.416;2023-12-28T12:11:30;4.60;92.10
66610;DHT22;53468;48.276;14.416;2023-12-28T12:16:38;4.70;92.70
66610;DHT22;53468;48.276;14.416;2023-12-28T12:21:40;4.80;91.80
66610;DHT22;53468;48.276;14.416;2023-12-28T12:26:43;4.70;92.40
66610;DHT22;53468;48.276;14.416;2023-12-28T12:31:49;4.70;92.30
66610;DHT22;53468;48.276;14.416;2023-12-28T12:36:52;4.80;92.40
66610;DHT22;53468;48.276;14.416;2023-12-28T12:41:57;4.80;92.10
66610;DHT22;53468;48.276;14.416;2023-12-28T12:47:03;4.90;92.20
66610;DHT22;53468;48.276;14.416;2023-12-28T12:52:08;4.80;91.80
66610;DHT22;53468;48.276;14.416;2023-12-28T12:57:14;4.80;92.20
66610;DHT22;53468;48.276;14.416;2023-12-28T13:02:25;4.80;92.10
66610;DHT22;53468;48.276;14.416;2023-12-28T13:07:29;4.80;92.20
66610;DHT22;53468;48.276;14.416;2023-12-28T13:12:39;4.80;92.10
66610;DHT22;53468;48.276;14.416;2023-12-28T13:18:06;4.80;92.10
66610;DHT22;53468;48.276;14.416;2023-12-28T13:23:18;4.90;92.00
66610;DHT22;53468;48.276;14.416;2023-12-28T13:28:21;4.80;92.10
66610;DHT22;53468;48.276;14.416;2023-12-28T13:33:59;4.90;92.20
66610;DHT22;53468;48.276;14.416;2023-12-28T13:39:11;4.90;92.20
66610;DHT22;53468;48.276;14.416;2023-12-28T13:44:29;5.00;92.40
66610;DHT22;53468;48.276;14.416;2023-12-28T13:49:49;5.00;92.30
66610;DHT22;53468;48.276;14.416;2023-12-28T13:54:52;5.00;92.20
66610;DHT22;53468;48.276;14.416;2023-12-28T13:59:54;5.00;92.30
66610;DHT22;53468;48.276;14.416;2023-12-28T14:05:02;5.00;92.60
66610;DHT22;53468;48.276;14.416;2023-12-28T14:10:05;5.00;92.50
66610;DHT22;53468;48.276;14.416;2023-12-28T14:15:09;5.00;92.40
66610;DHT22;53468;48.276;14.416;2023-12-28T14:20:25;5.00;92.70
66610;DHT22;53468;48.276;14.416;2023-12-28T14:25:43;4.90;92.60
66610;DHT22;53468;48.276;14.416;2023-12-28T14:30:55;4.80;93.00
66610;DHT22;53468;48.276;14.416;2023-12-28T14:36:10;4.80;92.90
66610;DHT22;53468;48.276;14.416;2023-12-28T14:41:15;4.80;93.20
66610;DHT22;53468;48.276;14.416;2023-12-28T14:46:23;4.80;93.10
66610;DHT22;53468;48.276;14.416;2023-12-28T14:51:31;4.80;93.10
66610;DHT22;53468;48.276;14.416;2023-12-28T14:56:35;4.70;93.30
66610;DHT22;53468;48.276;14.416;2023-12-28T15:01:39;4.70;93.30
66610;DHT22;53468;48.276;14.416;2023-12-28T15:06:45;4.70;93.30
66610;DHT22;53468;48.276;14.416;2023-12-28T15:11:50;4.70;93.20
66610;DHT22;53468;48.276;14.416;2023-12-28T15:16:56;4.70;93.30
66610;DHT22;53468;48.276;14.416;2023-12-28T15:22:10;4.60;93.10
66610;DHT22;53468;48.276;14.416;2023-12-28T15:27:13;4.60;93.20
66610;DHT22;53468;48.276;14.416;2023-12-28T15:32:39;4.50;93.30
66610;DHT22;53468;48.276;14.416;2023-12-28T15:38:16;4.40;93.40
66610;DHT22;53468;48.276;14.416;2023-12-28T15:43:24;4.40;93.30
66610;DHT22;53468;48.276;14.416;2023-12-28T15:48:35;4.30;93.10
66610;DHT22;53468;48.276;14.416;2023-12-28T15:53:46;4.20;92.90
66610;DHT22;53468;48.276;14.416;2023-12-28T15:59:10;4.10;93.10
66610;DHT22;53468;48.276;14.416;2023-12-28T16:16:55;3.90;93.00
66610;DHT22;53468;48.276;14.416;2023-12-28T16:22:20;3.80;93.20
66610;DHT22;53468;48.276;14.416;2023-12-28T16:27:43;3.80;93.20
66610;DHT22;53468;48.276;14.416;2023-12-28T16:33:20;3.70;93.20
66610;DHT22;53468;48.276;14.416;2023-12-28T16:38:34;3.60;93.10
66610;DHT22;53468;48.276;14.416;2023-12-28T16:44:00;3.40;93.00
66610;DHT22;53468;48.276;14.416;2023-12-28T16:55:23;3.40;93.10
66610;DHT22;53468;48.276;14.416;2023-12-28T17:00:53;3.30;93.20
66610;DHT22;53468;48.276;14.416;2023-12-28T17:06:18;3.30;93.40
66610;DHT22;53468;48.276;14.416;2023-12-28T17:12:13;3.30;93.20
66610;DHT22;53468;48.276;14.416;2023-12-28T17:17:50;3.30;93.30
66610;DHT22;53468;48.276;14.416;2023-12-28T17:23:30;3.30;93.30
66610;DHT22;53468;48.276;14.416;2023-12-28T17:29:10;3.20;93.50
66610;DHT22;53468;48.276;14.416;2023-12-28T17:34:41;3.10;93.00
66610;DHT22;53468;48.276;14.416;2023-12-28T17:39:51;3.10;93.70
66610;DHT22;53468;48.276;14.416;2023-12-28T17:45:25;3.00;93.40
66610;DHT22;53468;48.276;14.416;2023-12-28T17:50:50;3.10;93.60
66610;DHT22;53468;48.276;14.416;2023-12-28T17:55:55;3.00;93.20
66610;DHT22;53468;48.276;14.416;2023-12-28T18:01:00;2.90;93.30
66610;DHT22;53468;48.276;14.416;2023-12-28T18:06:04;2.90;93.30
66610;DHT22;53468;48.276;14.416;2023-12-28T18:11:07;2.80;93.20
66610;DHT22;53468;48.276;14.416;2023-12-28T18:16:12;2.80;93.20
66610;DHT22;53468;48.276;14.416;2023-12-28T18:21:15;2.80;93.50
66610;DHT22;53468;48.276;14.416;2023-12-28T18:26:18;2.70;93.40
66610;DHT22;53468;48.276;14.416;2023-12-28T18:31:23;2.70;93.80
66610;DHT22;53468;48.276;14.416;2023-12-28T18:36:26;2.70;93.50
66610;DHT22;53468;48.276;14.416;2023-12-28T18:41:31;2.60;93.40
66610;DHT22;53468;48.276;14.416;2023-12-28T18:46:46;2.70;93.40
66610;DHT22;53468;48.276;14.416;2023-12-28T18:51:49;2.70;93.60
66610;DHT22;53468;48.276;14.416;2023-12-28T18:56:52;2.60;93.80
66610;DHT22;53468;48.276;14.416;2023-12-28T19:01:57;2.70;94.00
66610;DHT22;53468;48.276;14.416;2023-12-28T19:07:00;2.80;93.90
66610;DHT22;53468;48.276;14.416;2023-12-28T19:12:04;2.80;94.10
66610;DHT22;53468;48.276;14.416;2023-12-28T19:17:10;2.90;94.50
66610;DHT22;53468;48.276;14.416;2023-12-28T19:22:14;3.00;94.50
66610;DHT22;53468;48.276;14.416;2023-12-28T19:27:17;3.10;94.40
66610;DHT22;53468;48.276;14.416;2023-12-28T19:32:23;3.10;94.50
66610;DHT22;53468;48.276;14.416;2023-12-28T19:37:26;3.20;94.60
66610;DHT22;53468;48.276;14.416;2023-12-28T19:42:29;3.20;94.60
66610;DHT22;53468;48.276;14.416;2023-12-28T19:47:34;3.30;94.60
66610;DHT22;53468;48.276;14.416;2023-12-28T19:52:37;3.40;94.60
66610;DHT22;53468;48.276;14.416;2023-12-28T19:57:44;3.40;94.50
66610;DHT22;53468;48.276;14.416;2023-12-28T20:02:48;3.40;94.20
66610;DHT22;53468;48.276;14.416;2023-12-28T20:07:51;3.40;94.20
66610;DHT22;53468;48.276;14.416;2023-12-28T20:12:55;3.40;94.20
66610;DHT22;53468;48.276;14.416;2023-12-28T20:18:04;3.40;94.20
66610;DHT22;53468;48.276;14.416;2023-12-28T20:23:16;3.40;94.30
66610;DHT22;53468;48.276;14.416;2023-12-28T20:28:19;3.50;94.20
66610;DHT22;53468;48.276;14.416;2023-12-28T20:33:27;3.40;94.40
66610;DHT22;53468;48.276;14.416;2023-12-28T20:38:32;3.50;94.50
66610;DHT22;53468;48.276;14.416;2023-12-28T20:43:38;3.50;94.50
66610;DHT22;53468;48.276;14.416;2023-12-28T20:48:44;3.50;94.40
66610;DHT22;53468;48.276;14.416;2023-12-28T20:53:49;3.60;94.50
66610;DHT22;53468;48.276;14.416;2023-12-28T20:58:53;3.60;94.60
66610;DHT22;53468;48.276;14.416;2023-12-28T21:04:00;3.70;94.50
66610;DHT22;53468;48.276;14.416;2023-12-28T21:09:04;3.70;94.50
66610;DHT22;53468;48.276;14.416;2023-12-28T21:14:09;3.70;94.40
66610;DHT22;53468;48.276;14.416;2023-12-28T21:19:17;3.80;94.40
66610;DHT22;53468;48.276;14.416;2023-12-28T21:24:21;3.70;94.30
66610;DHT22;53468;48.276;14.416;2023-12-28T21:29:27;3.60;94.30
66610;DHT22;53468;48.276;14.416;2023-12-28T21:34:33;3.50;94.00
66610;DHT22;53468;48.276;14.416;2023-12-28T21:39:40;3.50;94.30
66610;DHT22;53468;48.276;14.416;2023-12-28T21:44:44;3.40;93.90
66610;DHT22;53468;48.276;14.416;2023-12-28T21:49:49;3.30;93.90
66610;DHT22;53468;48.276;14.416;2023-12-28T21:54:59;3.20;93.50
66610;DHT22;53468;48.276;14.416;2023-12-28T22:00:03;3.20;93.20
66610;DHT22;53468;48.276;14.416;2023-12-28T22:05:08;3.10;93.70
66610;DHT22;53468;48.276;14.416;2023-12-28T22:10:12;3.00;93.90
66610;DHT22;53468;48.276;14.416;2023-12-28T22:15:15;2.80;93.60
66610;DHT22;53468;48.276;14.416;2023-12-28T22:20:22;2.90;93.90
66610;DHT22;53468;48.276;14.416;2023-12-28T22:25:30;2.80;93.60
66610;DHT22;53468;48.276;14.416;2023-12-28T22:30:36;2.90;94.20
66610;DHT22;53468;48.276;14.416;2023-12-28T22:35:41;2.90;94.10
66610;DHT22;53468;48.276;14.416;2023-12-28T22:40:47;3.00;94.10
66610;DHT22;53468;48.276;14.416;2023-12-28T22:45:51;3.10;94.20
66610;DHT22;53468;48.276;14.416;2023-12-28T22:50:57;3.20;94.20
66610;DHT22;53468;48.276;14.416;2023-12-28T22:56:00;3.20;94.30
66610;DHT22;53468;48.276;14.416;2023-12-28T23:01:03;3.10;94.10
66610;DHT22;53468;48.276;14.416;2023-12-28T23:06:10;3.00;93.80
66610;DHT22;53468;48.276;14.416;2023-12-28T23:11:14;3.00;94.10
66610;DHT22;53468;48.276;14.416;2023-12-28T23:16:17;3.00;93.60
66610;DHT22;53468;48.276;14.416;2023-12-28T23:21:22;2.90;94.00
66610;DHT22;53468;48.276;14.416;2023-12-28T23:26:25;2.80;93.70
66610;DHT22;53468;48.276;14.416;2023-12-28T23:31:30;2.80;93.70
66610;DHT22;53468;48.276;14.416;2023-12-28T23:36:35;2.90;94.20
66610;DHT22;53468;48.276;14.416;2023-12-28T23:41:38;3.00;94.50
66610;DHT22;53468;48.276;14.416;2023-12-28T23:46:41;3.10;94.60
66610;DHT22;53468;48.276;14.416;2023-12-28T23:51:46;3.20;94.70
66610;DHT22;53468;48.276;14.416;2023-12-28T23:56:50;3.30;94.70
